createdAt,value
2023-07-23T00:01:21.676Z,97056.94
2023-07-23T00:03:48.266Z,97055.94
2023-07-23T00:06:14.917Z,97053.78
2023-07-23T00:08:41.546Z,97056.72
2023-07-23T00:11:08.131Z,97056.94
2023-07-23T00:13:34.798Z,97056.94
2023-07-23T00:16:01.483Z,97061.38
2023-07-23T00:18:28.077Z,97055.19
2023-07-23T00:20:54.716Z,97057.34
2023-07-23T00:23:21.321Z,97048.22
2023-07-23T00:25:47.980Z,97052.13
2023-07-23T00:28:14.626Z,97052.03
2023-07-23T00:30:41.177Z,97040.13
2023-07-23T00:33:07.777Z,97047.44
2023-07-23T00:35:34.306Z,97046.25
2023-07-23T00:38:00.835Z,97050.63
2023-07-23T00:40:27.449Z,97042.66
2023-07-23T00:42:53.993Z,97036.88
2023-07-23T00:45:20.768Z,97039.16
2023-07-23T00:47:47.386Z,97037.84
2023-07-23T00:50:14.089Z,97044.06
2023-07-23T00:52:40.688Z,97037.97
2023-07-23T00:55:07.278Z,97035.13
2023-07-23T00:57:33.822Z,97032.72
2023-07-23T01:00:00.431Z,97036.44
2023-07-23T01:02:27.085Z,97031.09
2023-07-23T01:04:53.767Z,97029.34
2023-07-23T01:07:20.302Z,97035.88
2023-07-23T01:09:46.947Z,97030.75
2023-07-23T01:12:13.599Z,97026.06
2023-07-23T01:14:40.283Z,97027.59
2023-07-23T01:17:06.868Z,97029.09
2023-07-23T01:19:33.479Z,97035.97
2023-07-23T01:22:00.073Z,97032.47
2023-07-23T01:24:26.674Z,97032.16
2023-07-23T01:26:53.239Z,97034.78
2023-07-23T01:29:19.772Z,97029.44
2023-07-23T01:31:46.372Z,97024.69
2023-07-23T01:34:13.008Z,97032.09
2023-07-23T01:36:39.665Z,97028.94
2023-07-23T01:39:06.262Z,97017.03
2023-07-23T01:41:32.890Z,97015.66
2023-07-23T01:43:59.564Z,97024.59
2023-07-23T01:46:26.172Z,97020.66
2023-07-23T01:48:52.716Z,97008.69
2023-07-23T01:51:19.284Z,97012.19
2023-07-23T01:53:45.917Z,97010.53
2023-07-23T01:56:12.580Z,97011.91
2023-07-23T01:58:39.186Z,97011.59
2023-07-23T02:01:05.919Z,97016.94
2023-07-23T02:03:32.722Z,97014.09
2023-07-23T02:05:59.329Z,97014.97
2023-07-23T02:08:25.885Z,97010.84
2023-07-23T02:10:52.494Z,97008.00
2023-07-23T02:13:19.050Z,97007.22
2023-07-23T02:15:45.643Z,97005.34
2023-07-23T02:18:12.239Z,97008.28
2023-07-23T02:20:38.804Z,97004.38
2023-07-23T02:23:05.389Z,97009.28
2023-07-23T02:25:32.020Z,97001.63
2023-07-23T02:27:58.533Z,97012.06
2023-07-23T02:30:25.090Z,97005.44
2023-07-23T02:32:51.698Z,97011.66
2023-07-23T02:35:18.312Z,97009.69
2023-07-23T02:37:44.940Z,97005.78
2023-07-23T02:40:11.513Z,97011.00
2023-07-23T02:42:38.054Z,97011.66
2023-07-23T02:45:04.678Z,97011.22
2023-07-23T02:47:31.277Z,97013.38
2023-07-23T02:49:57.879Z,97010.56
2023-07-23T02:52:24.459Z,97015.41
2023-07-23T02:54:50.985Z,97018.25
2023-07-23T02:57:17.656Z,97020.69
2023-07-23T02:59:44.316Z,97022.91
2023-07-23T03:02:10.943Z,97019.44
2023-07-23T03:04:37.626Z,97019.53
2023-07-23T03:07:04.226Z,97020.88
2023-07-23T03:09:30.801Z,97020.88
2023-07-23T03:11:57.421Z,97024.97
2023-07-23T03:14:24.006Z,97031.28
2023-07-23T03:16:50.534Z,97024.44
2023-07-23T03:19:17.118Z,97024.13
2023-07-23T03:21:43.769Z,97029.56
2023-07-23T03:24:10.357Z,97032.38
2023-07-23T03:26:36.971Z,97036.72
2023-07-23T03:29:03.653Z,97027.69
2023-07-23T03:31:30.595Z,97037.53
2023-07-23T03:33:57.345Z,97025.63
2023-07-23T03:36:23.934Z,97030.41
2023-07-23T03:38:50.485Z,97036.44
2023-07-23T03:41:17.120Z,97032.38
2023-07-23T03:43:44.747Z,97036.19
2023-07-23T03:46:11.415Z,97037.81
2023-07-23T03:48:38.027Z,97027.53
2023-07-23T03:51:04.599Z,97040.00
2023-07-23T03:53:31.172Z,97036.03
2023-07-23T03:55:57.773Z,97040.97
2023-07-23T03:58:24.337Z,97038.66
2023-07-23T04:00:50.920Z,97040.13
2023-07-23T04:03:17.516Z,97038.75
2023-07-23T04:05:44.089Z,97043.34
2023-07-23T04:08:10.678Z,97050.47
2023-07-23T04:10:37.305Z,97048.56
2023-07-23T04:13:03.920Z,97051.69
2023-07-23T04:15:30.498Z,97048.38
2023-07-23T04:17:57.096Z,97055.25
2023-07-23T04:20:23.650Z,97048.63
2023-07-23T04:22:50.221Z,97049.13
2023-07-23T04:25:16.785Z,97052.22
2023-07-23T04:27:43.421Z,97049.22
2023-07-23T04:30:10.061Z,97047.94
2023-07-23T04:32:36.726Z,97047.84
2023-07-23T04:35:03.561Z,97054.56
2023-07-23T04:37:30.169Z,97052.38
2023-07-23T04:39:56.706Z,97051.94
2023-07-23T04:42:23.202Z,97048.97
2023-07-23T04:44:49.829Z,97055.91
2023-07-23T04:47:16.418Z,97048.78
2023-07-23T04:49:42.983Z,97052.38
2023-07-23T04:52:09.580Z,97047.25
2023-07-23T04:54:36.152Z,97054.88
2023-07-23T04:57:02.795Z,97060.53
2023-07-23T04:59:29.367Z,97060.00
2023-07-23T05:01:55.955Z,97053.69
2023-07-23T05:04:22.510Z,97062.13
2023-07-23T05:06:49.154Z,97062.22
2023-07-23T05:09:15.805Z,97058.88
2023-07-23T05:11:42.384Z,97063.91
2023-07-23T05:14:08.958Z,97056.50
2023-07-23T05:16:35.567Z,97061.09
2023-07-23T05:19:02.115Z,97051.66
2023-07-23T05:21:28.958Z,97069.25
2023-07-23T05:23:55.728Z,97055.47
2023-07-23T05:26:22.250Z,97054.88
2023-07-23T05:28:48.867Z,97054.72
2023-07-23T05:31:15.496Z,97057.00
2023-07-23T05:33:42.115Z,97055.81
2023-07-23T05:36:08.749Z,97065.78
2023-07-23T05:38:35.311Z,97061.78
2023-07-23T05:41:01.905Z,97060.25
2023-07-23T05:43:31.304Z,97062.56
2023-07-23T05:45:57.880Z,97058.94
2023-07-23T05:48:24.421Z,97061.16
2023-07-23T05:50:51.036Z,97075.88
2023-07-23T05:53:17.688Z,97076.31
2023-07-23T05:55:44.234Z,97074.06
2023-07-23T05:58:10.810Z,97081.69
2023-07-23T06:00:37.409Z,97077.09
2023-07-23T06:03:04.202Z,97085.22
2023-07-23T06:05:30.847Z,97076.72
2023-07-23T06:07:57.456Z,97073.56
2023-07-23T06:10:24.092Z,97079.34
2023-07-23T06:12:50.675Z,97074.22
2023-07-23T06:15:17.374Z,97075.94
2023-07-23T06:17:44.033Z,97087.09
2023-07-23T06:20:10.648Z,97077.50
2023-07-23T06:22:37.190Z,97081.38
2023-07-23T06:25:03.837Z,97079.00
2023-07-23T06:27:30.443Z,97082.38
2023-07-23T06:29:57.016Z,97078.03
2023-07-23T06:32:23.634Z,97076.69
2023-07-23T06:34:50.322Z,97089.53
2023-07-23T06:37:16.910Z,97088.63
2023-07-23T06:39:43.544Z,97097.53
2023-07-23T06:42:10.132Z,97095.94
2023-07-23T06:44:36.739Z,97091.91
2023-07-23T06:47:03.388Z,97093.88
2023-07-23T06:49:30.123Z,97098.44
2023-07-23T06:51:56.833Z,97096.34
2023-07-23T06:54:23.455Z,97102.16
2023-07-23T06:56:50.036Z,97099.97
2023-07-23T06:59:16.598Z,97100.00
2023-07-23T07:01:43.239Z,97093.44
2023-07-23T07:04:09.836Z,97089.75
2023-07-23T07:06:36.463Z,97093.31
2023-07-23T07:09:03.050Z,97090.09
2023-07-23T07:11:29.800Z,97092.69
2023-07-23T07:13:56.527Z,97089.75
2023-07-23T07:16:23.126Z,97095.88
2023-07-23T07:18:49.775Z,97100.34
2023-07-23T07:21:16.352Z,97096.63
2023-07-23T07:23:42.939Z,97098.06
2023-07-23T07:26:09.573Z,97100.03
2023-07-23T07:28:36.157Z,97103.41
2023-07-23T07:31:02.776Z,97117.56
2023-07-23T07:33:29.400Z,97105.88
2023-07-23T07:35:58.856Z,97104.38
2023-07-23T07:38:25.419Z,97103.28
2023-07-23T07:40:52.010Z,97104.47
2023-07-23T07:43:18.597Z,97109.16
2023-07-23T07:45:45.269Z,97104.94
2023-07-23T07:48:11.895Z,97102.53
2023-07-23T07:50:38.448Z,97101.22
2023-07-23T07:53:05.108Z,97098.59
2023-07-23T07:55:31.691Z,97098.03
2023-07-23T07:57:58.230Z,97093.56
2023-07-23T08:00:24.825Z,97093.47
2023-07-23T08:02:51.562Z,97095.84
2023-07-23T08:05:18.435Z,97090.41
2023-07-23T08:07:45.055Z,97091.50
2023-07-23T08:10:11.640Z,97091.63
2023-07-23T08:12:38.250Z,97090.41
2023-07-23T08:15:04.837Z,97093.91
2023-07-23T08:17:31.435Z,97088.22
2023-07-23T08:19:58.025Z,97091.38
2023-07-23T08:22:24.683Z,97085.28
2023-07-23T08:24:51.445Z,97077.31
2023-07-23T08:27:18.025Z,97079.63
2023-07-23T08:29:44.674Z,97076.72
2023-07-23T08:32:11.256Z,97070.22
2023-07-23T08:34:37.823Z,97071.47
2023-07-23T08:37:04.340Z,97078.94
2023-07-23T08:39:30.944Z,97070.75
2023-07-23T08:41:57.729Z,97072.59
2023-07-23T08:44:24.371Z,97065.72
2023-07-23T08:46:50.933Z,97063.94
2023-07-23T08:49:17.452Z,97065.81
2023-07-23T08:51:44.000Z,97070.38
2023-07-23T08:54:10.560Z,97069.19
2023-07-23T08:56:37.960Z,97069.41
2023-07-23T08:59:04.670Z,97067.69
2023-07-23T09:01:31.432Z,97065.06
2023-07-23T09:03:58.387Z,97070.84
2023-07-23T09:06:25.018Z,97059.69
2023-07-23T09:08:51.567Z,97059.00
2023-07-23T09:11:18.143Z,97058.16
2023-07-23T09:13:44.770Z,97050.72
2023-07-23T09:16:11.342Z,97046.66
2023-07-23T09:18:37.848Z,97054.19
2023-07-23T09:21:04.381Z,97050.19
2023-07-23T09:23:30.870Z,97050.72
2023-07-23T09:25:57.419Z,97045.53
2023-07-23T09:28:23.992Z,97058.34
2023-07-23T09:30:50.721Z,97053.53
2023-07-23T09:33:17.291Z,97046.41
2023-07-23T09:35:43.857Z,97048.50
2023-07-23T09:38:10.447Z,97041.47
2023-07-23T09:40:36.997Z,97051.16
2023-07-23T09:43:03.605Z,97048.34
2023-07-23T09:45:30.146Z,97032.00
2023-07-23T09:48:06.050Z,97045.03
2023-07-23T09:50:41.144Z,97036.91
2023-07-23T09:53:07.798Z,97037.47
2023-07-23T09:55:34.373Z,97037.19
2023-07-23T09:58:00.902Z,97038.59
2023-07-23T10:00:27.437Z,97032.22
2023-07-23T10:02:54.001Z,97032.97
2023-07-23T10:05:20.613Z,97042.56
2023-07-23T10:07:47.152Z,97036.56
2023-07-23T10:10:13.697Z,97035.69
2023-07-23T10:12:40.223Z,97029.19
2023-07-23T10:15:07.053Z,97027.88
2023-07-23T10:17:33.662Z,97020.78
2023-07-23T10:20:00.234Z,97024.28
2023-07-23T10:22:26.777Z,97018.06
2023-07-23T10:24:53.480Z,97014.00
2023-07-23T10:27:20.124Z,97022.81
2023-07-23T10:29:46.648Z,97019.50
2023-07-23T10:32:13.189Z,97019.34
2023-07-23T10:34:39.729Z,97020.75
2023-07-23T10:37:06.429Z,97016.31
2023-07-23T10:39:33.003Z,97017.97
2023-07-23T10:41:59.592Z,97020.88
2023-07-23T10:44:26.344Z,97007.38
2023-07-23T10:46:52.884Z,97000.66
2023-07-23T10:49:19.430Z,97011.91
2023-07-23T10:51:46.084Z,97007.97
2023-07-23T10:54:12.625Z,97003.28
2023-07-23T10:56:39.159Z,97012.72
2023-07-23T10:59:05.691Z,97006.81
2023-07-23T11:01:32.376Z,96993.16
2023-07-23T11:03:59.226Z,97007.13
2023-07-23T11:06:25.736Z,96998.00
2023-07-23T11:08:52.305Z,96991.00
2023-07-23T11:11:18.853Z,96985.84
2023-07-23T11:13:45.398Z,96998.63
2023-07-23T11:16:11.985Z,96984.06
2023-07-23T11:18:40.249Z,96977.81
2023-07-23T11:21:07.770Z,96979.94
2023-07-23T11:23:34.485Z,96977.19
2023-07-23T11:26:01.411Z,96982.09
2023-07-23T11:28:28.061Z,96967.22
2023-07-23T11:30:54.575Z,96952.94
2023-07-23T11:33:21.116Z,96957.03
2023-07-23T11:35:48.301Z,96955.88
2023-07-23T11:38:16.922Z,96955.69
2023-07-23T11:40:43.441Z,96950.66
2023-07-23T11:43:10.072Z,96949.63
2023-07-23T11:45:36.935Z,96945.81
2023-07-23T11:48:03.561Z,96939.47
2023-07-23T11:50:30.193Z,96937.00
2023-07-23T11:52:56.782Z,96935.81
2023-07-23T11:55:23.601Z,96930.34
2023-07-23T11:57:50.183Z,96921.38
2023-07-23T12:00:16.707Z,96927.28
2023-07-23T12:02:43.295Z,96912.84
2023-07-23T12:05:10.032Z,96927.59
2023-07-23T12:07:36.564Z,96912.75
2023-07-23T12:10:03.112Z,96907.88
2023-07-23T12:12:29.848Z,96920.78
2023-07-23T12:14:56.387Z,96905.75
2023-07-23T12:17:22.991Z,96906.81
2023-07-23T12:19:49.572Z,96900.00
2023-07-23T12:22:16.156Z,96892.69
2023-07-23T12:24:43.299Z,96893.16
2023-07-23T12:27:10.346Z,96880.88
2023-07-23T12:29:36.903Z,96888.59
2023-07-23T12:32:03.468Z,96879.19
2023-07-23T12:34:30.047Z,96870.56
2023-07-23T12:36:56.577Z,96878.75
2023-07-23T12:39:23.615Z,96871.91
2023-07-23T12:41:50.213Z,96869.31
2023-07-23T12:44:16.800Z,96877.81
2023-07-23T12:46:43.434Z,96867.22
2023-07-23T12:49:10.050Z,96871.16
2023-07-23T12:51:36.811Z,96870.09
2023-07-23T12:54:03.342Z,96872.38
2023-07-23T12:56:30.146Z,96865.69
2023-07-23T12:58:57.129Z,96858.84
2023-07-23T13:01:23.788Z,96851.09
2023-07-23T13:03:50.568Z,96852.66
2023-07-23T13:06:17.345Z,96846.28
2023-07-23T13:08:43.925Z,96852.66
2023-07-23T13:11:10.525Z,96840.81
2023-07-23T13:13:37.050Z,96830.00
2023-07-23T13:16:03.638Z,96825.91
2023-07-23T13:18:32.060Z,96826.06
2023-07-23T13:20:58.632Z,96819.34
2023-07-23T13:23:25.312Z,96818.91
2023-07-23T13:25:52.052Z,96817.69
2023-07-23T13:28:18.591Z,96810.06
2023-07-23T13:30:45.399Z,96807.63
2023-07-23T13:33:12.370Z,96804.28
2023-07-23T13:35:39.030Z,96798.03
2023-07-23T13:38:05.574Z,96802.41
2023-07-23T13:40:32.089Z,96799.16
2023-07-23T13:42:58.669Z,96796.84
2023-07-23T13:45:25.284Z,96794.50
2023-07-23T13:47:51.977Z,96783.31
2023-07-23T13:50:18.573Z,96786.75
2023-07-23T13:52:45.206Z,96779.97
2023-07-23T13:55:11.754Z,96773.38
2023-07-23T13:57:38.287Z,96768.28
2023-07-23T14:00:04.930Z,96770.38
2023-07-23T14:02:31.651Z,96776.47
2023-07-23T14:04:58.218Z,96763.72
2023-07-23T14:07:24.776Z,96764.41
2023-07-23T14:09:51.341Z,96757.53
2023-07-23T14:12:17.924Z,96746.00
2023-07-23T14:14:44.484Z,96744.44
2023-07-23T14:17:11.012Z,96743.53
2023-07-23T14:19:37.596Z,96746.13
2023-07-23T14:22:04.413Z,96738.69
2023-07-23T14:24:31.487Z,96739.91
2023-07-23T14:26:57.992Z,96733.34
2023-07-23T14:29:24.628Z,96726.97
2023-07-23T14:31:51.313Z,96722.06
2023-07-23T14:34:17.984Z,96715.97
2023-07-23T14:36:44.932Z,96709.59
2023-07-23T14:39:11.488Z,96712.94
2023-07-23T14:41:38.505Z,96712.03
2023-07-23T14:44:05.087Z,96702.59
2023-07-23T14:46:31.700Z,96699.66
2023-07-23T14:48:58.351Z,96701.78
2023-07-23T14:51:24.937Z,96698.31
2023-07-23T14:53:51.626Z,96696.81
2023-07-23T14:56:18.785Z,96687.94
2023-07-23T14:58:46.027Z,96679.63
2023-07-23T15:01:12.613Z,96678.84
2023-07-23T15:03:39.317Z,96679.09
2023-07-23T15:06:06.013Z,96672.84
2023-07-23T15:08:32.851Z,96669.59
2023-07-23T15:10:59.807Z,96662.09
2023-07-23T15:13:26.540Z,96658.41
2023-07-23T15:15:53.496Z,96650.72
2023-07-23T15:18:20.208Z,96642.94
2023-07-23T15:20:52.205Z,96640.06
2023-07-23T15:23:18.805Z,96641.78
2023-07-23T15:25:45.427Z,96640.97
2023-07-23T15:28:11.958Z,96637.56
2023-07-23T15:30:38.532Z,96625.78
2023-07-23T15:33:05.426Z,96633.69
2023-07-23T15:35:32.506Z,96625.47
2023-07-23T15:37:59.077Z,96625.47
2023-07-23T15:40:25.757Z,96622.22
2023-07-23T15:42:52.372Z,96621.59
2023-07-23T15:45:18.979Z,96610.09
2023-07-23T15:47:45.668Z,96608.47
2023-07-23T15:50:12.288Z,96604.78
2023-07-23T15:52:38.857Z,96599.69
2023-07-23T15:55:05.806Z,96594.03
2023-07-23T15:57:32.572Z,96598.19
2023-07-23T15:59:59.173Z,96595.38
2023-07-23T16:02:25.804Z,96592.72
2023-07-23T16:04:52.529Z,96588.00
2023-07-23T16:07:19.111Z,96588.91
2023-07-23T16:09:45.649Z,96592.50
2023-07-23T16:12:12.211Z,96590.16
2023-07-23T16:14:38.782Z,96583.59
2023-07-23T16:17:05.454Z,96582.38
2023-07-23T16:19:32.009Z,96572.69
2023-07-23T16:21:58.583Z,96569.78
2023-07-23T16:24:25.218Z,96572.59
2023-07-23T16:26:51.815Z,96566.34
2023-07-23T16:29:18.338Z,96556.06
2023-07-23T16:31:44.887Z,96549.13
2023-07-23T16:34:11.456Z,96549.41
2023-07-23T16:36:38.049Z,96540.00
2023-07-23T16:39:04.598Z,96541.09
2023-07-23T16:41:31.268Z,96538.38
2023-07-23T16:43:58.056Z,96538.16
2023-07-23T16:46:24.620Z,96527.41
2023-07-23T16:48:51.232Z,96529.66
2023-07-23T16:51:17.776Z,96522.47
2023-07-23T16:53:44.337Z,96516.78
2023-07-23T16:56:10.877Z,96516.13
2023-07-23T16:58:37.804Z,96518.78
2023-07-23T17:01:04.658Z,96512.75
2023-07-23T17:03:31.276Z,96514.09
2023-07-23T17:05:57.883Z,96515.78
2023-07-23T17:08:24.408Z,96508.19
2023-07-23T17:10:50.974Z,96509.06
2023-07-23T17:13:17.734Z,96507.28
2023-07-23T17:15:44.335Z,96499.72
2023-07-23T17:18:10.887Z,96507.84
2023-07-23T17:20:37.447Z,96503.69
2023-07-23T17:23:04.006Z,96500.50
2023-07-23T17:25:30.618Z,96502.84
2023-07-23T17:27:57.190Z,96505.38
2023-07-23T17:30:23.760Z,96499.19
2023-07-23T17:32:50.413Z,96506.44
2023-07-23T17:35:17.010Z,96507.56
2023-07-23T17:37:43.549Z,96499.06
2023-07-23T17:40:10.097Z,96495.03
2023-07-23T17:42:36.639Z,96495.94
2023-07-23T17:45:03.193Z,96495.19
2023-07-23T17:47:29.780Z,96490.75
2023-07-23T17:49:56.406Z,96497.09
2023-07-23T17:52:23.015Z,96490.00
2023-07-23T17:54:49.652Z,96489.25
2023-07-23T17:57:16.249Z,96483.47
2023-07-23T17:59:42.825Z,96478.50
2023-07-23T18:02:09.376Z,96487.59
2023-07-23T18:04:36.015Z,96485.25
2023-07-23T18:07:02.651Z,96482.31
2023-07-23T18:09:29.403Z,96484.19
2023-07-23T18:11:56.075Z,96482.97
2023-07-23T18:14:22.642Z,96472.69
2023-07-23T18:16:49.354Z,96475.53
2023-07-23T18:19:16.076Z,96477.88
2023-07-23T18:21:42.689Z,96479.66
2023-07-23T18:24:09.289Z,96479.09
2023-07-23T18:26:35.922Z,96479.75
2023-07-23T18:29:02.554Z,96471.34
2023-07-23T18:31:34.653Z,96466.06
2023-07-23T18:34:02.285Z,96468.34
2023-07-23T18:36:29.161Z,96466.06
2023-07-23T18:38:56.054Z,96469.47
2023-07-23T18:41:22.606Z,96469.94
2023-07-23T18:43:49.225Z,96473.16
2023-07-23T18:46:15.774Z,96467.69
2023-07-23T18:48:42.415Z,96472.09
2023-07-23T18:51:08.994Z,96473.41
2023-07-23T18:53:35.633Z,96477.28
2023-07-23T18:56:02.182Z,96476.81
2023-07-23T18:58:28.811Z,96471.34
2023-07-23T19:00:55.398Z,96476.25
2023-07-23T19:03:21.910Z,96473.81
2023-07-23T19:05:48.444Z,96476.91
2023-07-23T19:08:15.003Z,96477.88
2023-07-23T19:10:41.559Z,96490.22
2023-07-23T19:13:08.255Z,96487.19
2023-07-23T19:15:34.822Z,96479.44
2023-07-23T19:18:01.390Z,96491.63
2023-07-23T19:20:28.054Z,96488.91
2023-07-23T19:22:54.584Z,96496.50
2023-07-23T19:25:21.165Z,96492.28
2023-07-23T19:27:50.484Z,96491.22
2023-07-23T19:30:17.149Z,96494.41
2023-07-23T19:32:43.714Z,96492.44
2023-07-23T19:35:10.260Z,96493.19
2023-07-23T19:37:36.824Z,96501.13
2023-07-23T19:40:03.384Z,96505.09
2023-07-23T19:42:29.919Z,96501.31
2023-07-23T19:44:56.456Z,96504.78
2023-07-23T19:47:23.028Z,96500.28
2023-07-23T19:49:49.569Z,96502.06
2023-07-23T19:52:16.178Z,96511.47
2023-07-23T19:54:42.770Z,96513.00
2023-07-23T19:57:09.499Z,96516.22
2023-07-23T19:59:36.033Z,96519.69
2023-07-23T20:02:03.158Z,96526.69
2023-07-23T20:04:29.783Z,96519.69
2023-07-23T20:06:56.406Z,96517.16
2023-07-23T20:09:25.921Z,96520.34
2023-07-23T20:11:52.692Z,96526.13
2023-07-23T20:14:19.249Z,96526.72
2023-07-23T20:16:45.925Z,96540.09
2023-07-23T20:19:12.631Z,96534.31
2023-07-23T20:21:44.390Z,96529.75
2023-07-23T20:24:11.858Z,96543.84
2023-07-23T20:26:38.499Z,96535.63
2023-07-23T20:29:05.329Z,96534.06
2023-07-23T20:31:33.796Z,96538.94
2023-07-23T20:34:02.081Z,96557.81
2023-07-23T20:36:28.842Z,96547.78
2023-07-23T20:38:55.603Z,96545.81
2023-07-23T20:41:22.953Z,96551.28
2023-07-23T20:43:49.639Z,96539.88
2023-07-23T20:46:16.383Z,96544.78
2023-07-23T20:48:43.042Z,96541.91
2023-07-23T20:51:09.664Z,96552.75
2023-07-23T20:53:36.210Z,96545.47
2023-07-23T20:56:02.764Z,96553.50
2023-07-23T20:58:29.347Z,96553.31
2023-07-23T21:00:56.125Z,96546.97
2023-07-23T21:03:22.749Z,96555.00
2023-07-23T21:05:51.737Z,96553.94
2023-07-23T21:08:18.480Z,96555.78
2023-07-23T21:10:45.046Z,96552.44
2023-07-23T21:13:11.586Z,96550.94
2023-07-23T21:15:38.317Z,96561.00
2023-07-23T21:18:04.961Z,96554.72
2023-07-23T21:20:31.554Z,96555.47
2023-07-23T21:22:58.118Z,96553.44
2023-07-23T21:25:24.716Z,96560.84
2023-07-23T21:27:51.288Z,96555.94
2023-07-23T21:30:17.865Z,96563.28
2023-07-23T21:32:44.536Z,96565.97
2023-07-23T21:35:11.624Z,96559.75
2023-07-23T21:37:38.638Z,96566.66
2023-07-23T21:40:05.316Z,96562.34
2023-07-23T21:42:31.875Z,96569.84
2023-07-23T21:44:58.434Z,96572.66
2023-07-23T21:47:25.046Z,96562.94
2023-07-23T21:49:51.622Z,96566.13
2023-07-23T21:52:18.198Z,96569.75
2023-07-23T21:54:44.751Z,96574.06
2023-07-23T21:57:11.359Z,96577.72
2023-07-23T21:59:37.959Z,96572.13
2023-07-23T22:02:04.536Z,96565.38
2023-07-23T22:04:31.204Z,96563.88
2023-07-23T22:06:57.730Z,96564.63
2023-07-23T22:09:24.572Z,96566.59
2023-07-23T22:11:51.119Z,96576.03
2023-07-23T22:14:17.636Z,96574.50
2023-07-23T22:16:44.329Z,96560.50
2023-07-23T22:19:11.077Z,96576.16
2023-07-23T22:21:38.088Z,96570.88
2023-07-23T22:24:04.626Z,96560.94
2023-07-23T22:26:31.317Z,96563.44
2023-07-23T22:28:58.098Z,96561.13
2023-07-23T22:31:24.665Z,96552.81
2023-07-23T22:33:51.262Z,96552.16
2023-07-23T22:36:17.801Z,96554.78
2023-07-23T22:38:44.319Z,96542.25
2023-07-23T22:41:10.880Z,96554.59
2023-07-23T22:43:38.964Z,96557.53
2023-07-23T22:46:09.284Z,96562.81
2023-07-23T22:48:35.868Z,96561.31
2023-07-23T22:51:03.354Z,96558.91
2023-07-23T22:53:30.127Z,96557.81
2023-07-23T22:55:56.757Z,96566.78
2023-07-23T22:58:23.363Z,96550.81
2023-07-23T23:00:49.959Z,96550.53
2023-07-23T23:03:16.649Z,96561.00
2023-07-23T23:05:43.414Z,96547.97
2023-07-23T23:08:09.954Z,96555.78
2023-07-23T23:10:36.638Z,96552.81
2023-07-23T23:13:04.207Z,96549.50
2023-07-23T23:15:30.822Z,96559.66
2023-07-23T23:17:57.447Z,96544.16
2023-07-23T23:20:24.100Z,96550.47
2023-07-23T23:22:50.734Z,96552.00
2023-07-23T23:25:17.330Z,96553.25
2023-07-23T23:27:44.041Z,96560.84
2023-07-23T23:30:10.780Z,96556.88
2023-07-23T23:32:37.480Z,96559.91
2023-07-23T23:35:04.137Z,96557.00
2023-07-23T23:37:30.710Z,96557.63
2023-07-23T23:39:57.387Z,96550.38
2023-07-23T23:42:24.004Z,96549.88
2023-07-23T23:44:50.603Z,96540.66
2023-07-23T23:47:17.178Z,96542.91
2023-07-23T23:49:43.744Z,96541.41
2023-07-23T23:52:10.394Z,96549.31
2023-07-23T23:54:37.182Z,96544.78
2023-07-23T23:57:03.790Z,96541.41
2023-07-23T23:59:30.302Z,96542.63
